Terminal Aerodrome Forecast
Issued by NWS Newport/Morehead City, NC

Home | Current Version | Previous Version | Graphics & Text | Print | Product List | Glossary On
Versions: 1 2 3 4 5 6 7 8 9 10 11 12 13 14 15 16 17 18 19
000
FTUS42 KMHX 241859 AAA
TAFEWN
TAF AMD
KEWN 241859Z 2419/2518 05007KT P6SM SCT040
     FM250300 04008KT 6SM BR OVC009
     FM251300 08007KT P6SM OVC050=

USA.gov is the U.S. government's official web portal to all federal, state and local government web resources and services.